Time,TemperatureF,DewpointF,PressureIn,WindDirection,WindDirectionDegrees,WindSpeedMPH,WindSpeedGustMPH,Humidity,HourlyPrecipIn,Conditions,Clouds,dailyrainin,SoftwareType,DateUTC
2013-02-08 00:00:00,34.7,31.2,30.12,West,270,0.7,3.4,87,0.00,CLR,BKN,0.00,WeatherDisplay:10.37,2013-02-08 08:00:00,
2013-02-08 00:05:00,34.7,31.2,30.13,West,270,0.7,3.4,87,0.00,CLR,BKN,0.00,WeatherDisplay:10.37,2013-02-08 08:05:00,
2013-02-08 00:10:00,35.4,31.9,30.13,NW,315,1.6,3.4,87,0.00,CLR,BKN,0.00,WeatherDisplay:10.37,2013-02-08 08:10:00,
2013-02-08 00:15:00,35.8,32.0,30.13,NW,315,2.2,3.4,86,0.00,CLR,BKN,0.00,WeatherDisplay:10.37,2013-02-08 08:15:00,
2013-02-08 00:20:00,36.0,32.2,30.13,South,180,0.7,4.6,86,0.00,CLR,BKN,0.00,WeatherDisplay:10.37,2013-02-08 08:20:00,
2013-02-08 00:25:00,36.1,32.1,30.14,West,270,0.7,3.4,85,0.00,CLR,BKN,0.00,WeatherDisplay:10.37,2013-02-08 08:25:00,
2013-02-08 00:27:00,36.3,32.2,30.13,West,270,2.2,5.8,85,0.00,CLR,BKN,0.00,WeatherDisplay:10.37,2013-02-08 08:27:00,
2013-02-08 00:30:00,36.3,32.2,30.13,West,270,0.7,3.4,85,0.00,CLR,BKN,0.00,WeatherDisplay:10.37,2013-02-08 08:30:00,
2013-02-08 00:35:00,36.3,32.2,30.13,NW,315,1.6,3.8,85,0.00,CLR,BKN,0.00,WeatherDisplay:10.37,2013-02-08 08:35:00,
2013-02-08 01:00:00,36.3,32.2,30.14,SW,225,0.0,1.6,85,0.00,CLR,BKN,0.00,WeatherDisplay:10.37,2013-02-08 09:00:00,
2013-02-08 01:05:00,36.3,32.2,30.14,SW,225,0.0,1.6,85,0.00,CLR,BKN,0.00,WeatherDisplay:10.37,2013-02-08 09:05:00,
2013-02-08 01:10:00,36.0,31.9,30.14,West,270,0.0,1.1,85,0.00,CLR,BKN,0.00,WeatherDisplay:10.37,2013-02-08 09:10:00,
2013-02-08 01:15:00,35.4,31.4,30.14,NW,315,0.0,1.1,85,0.00,CLR,BKN,0.00,WeatherDisplay:10.37,2013-02-08 09:15:00,
2013-02-08 01:20:00,35.2,31.5,30.14,NW,315,0.0,1.1,86,0.00,CLR,BKN,0.00,WeatherDisplay:10.37,2013-02-08 09:20:00,
2013-02-08 01:25:00,35.1,31.3,30.14,NW,315,0.0,1.6,86,0.00,CLR,BKN,0.00,WeatherDisplay:10.37,2013-02-08 09:25:00,
2013-02-08 01:27:00,35.1,31.6,30.14,West,270,0.0,1.1,87,0.00,CLR,BKN,0.00,WeatherDisplay:10.37,2013-02-08 09:27:00,
2013-02-08 01:30:00,35.1,31.6,30.14,NW,315,0.0,1.1,87,0.00,CLR,BKN,0.00,WeatherDisplay:10.37,2013-02-08 09:30:00,
2013-02-08 01:35:00,35.1,31.6,30.14,NW,315,0.0,1.6,87,0.00,CLR,BKN,0.00,WeatherDisplay:10.37,2013-02-08 09:35:00,
2013-02-08 02:00:00,36.3,33.4,30.15,NW,315,0.7,3.4,89,0.00,CLR,BKN,0.00,WeatherDisplay:10.37,2013-02-08 10:00:00,
2013-02-08 02:05:00,36.3,33.4,30.15,NW,315,0.7,1.1,89,0.00,CLR,BKN,0.00,WeatherDisplay:10.37,2013-02-08 10:05:00,
2013-02-08 02:10:00,37.0,33.8,30.15,West,270,0.7,3.4,88,0.00,CLR,BKN,0.00,WeatherDisplay:10.37,2013-02-08 10:10:00,
2013-02-08 02:15:00,37.4,34.2,30.15,SW,225,0.7,3.4,88,0.00,CLR,BKN,0.00,WeatherDisplay:10.37,2013-02-08 10:15:00,
2013-02-08 02:20:00,37.6,34.3,30.15,SW,225,2.2,3.4,88,0.00,CLR,BKN,0.00,WeatherDisplay:10.37,2013-02-08 10:20:00,
2013-02-08 02:25:00,37.9,34.7,30.15,SW,225,1.6,3.4,88,0.00,CLR,BKN,0.00,WeatherDisplay:10.37,2013-02-08 10:25:00,
2013-02-08 02:27:00,38.1,34.9,30.16,West,270,2.2,3.4,88,0.00,CLR,BKN,0.00,WeatherDisplay:10.37,2013-02-08 10:27:00,
2013-02-08 02:30:00,37.9,34.7,30.16,SW,225,0.7,3.4,88,0.00,CLR,BKN,0.00,WeatherDisplay:10.37,2013-02-08 10:30:00,
2013-02-08 02:35:00,38.1,34.9,30.16,West,270,1.6,5.8,88,0.00,CLR,BKN,0.00,WeatherDisplay:10.37,2013-02-08 10:35:00,
2013-02-08 03:00:00,38.7,35.1,30.16,SW,225,2.2,4.6,87,0.00,CLR,BKN,0.00,WeatherDisplay:10.37,2013-02-08 11:00:00,
2013-02-08 03:05:00,38.7,35.1,30.16,SW,225,2.2,4.6,87,0.00,CLR,BKN,0.00,WeatherDisplay:10.37,2013-02-08 11:05:00,
2013-02-08 03:10:00,38.8,35.3,30.16,West,270,0.7,3.4,87,0.00,CLR,BKN,0.00,WeatherDisplay:10.37,2013-02-08 11:10:00,
2013-02-08 03:15:00,38.7,35.1,30.16,SW,225,0.0,2.3,87,0.00,CLR,BKN,0.00,WeatherDisplay:10.37,2013-02-08 11:15:00,
2013-02-08 03:20:00,38.7,35.1,30.15,West,270,0.7,1.1,87,0.00,CLR,BKN,0.00,WeatherDisplay:10.37,2013-02-08 11:20:00,
2013-02-08 03:25:00,38.7,35.1,30.16,West,270,3.1,5.8,87,0.00,CLR,BKN,0.00,WeatherDisplay:10.37,2013-02-08 11:25:00,
2013-02-08 03:27:00,38.8,35.3,30.15,SW,225,0.7,3.4,87,0.00,CLR,BKN,0.00,WeatherDisplay:10.37,2013-02-08 11:27:00,
2013-02-08 03:30:00,38.8,35.3,30.15,West,270,0.0,2.3,87,0.00,CLR,BKN,0.00,WeatherDisplay:10.37,2013-02-08 11:30:00,
2013-02-08 03:35:00,38.8,35.3,30.15,West,270,0.7,2.3,87,0.00,CLR,BKN,0.00,WeatherDisplay:10.37,2013-02-08 11:35:00,
2013-02-08 04:00:00,38.7,35.1,30.15,West,270,0.0,1.6,87,0.00,CLR,BKN,0.00,WeatherDisplay:10.37,2013-02-08 12:00:00,
2013-02-08 04:05:00,38.7,35.1,30.16,West,270,0.0,1.1,87,0.00,CLR,BKN,0.00,WeatherDisplay:10.37,2013-02-08 12:05:00,
2013-02-08 04:10:00,38.8,35.3,30.16,West,270,0.7,3.4,87,0.00,CLR,BKN,0.00,WeatherDisplay:10.37,2013-02-08 12:10:00,
2013-02-08 04:15:00,39.0,35.5,30.17,West,270,1.6,3.8,87,0.00,CLR,BKN,0.00,WeatherDisplay:10.37,2013-02-08 12:15:00,
2013-02-08 04:20:00,39.2,35.7,30.17,NNW,338,0.7,3.4,87,0.00,CLR,BKN,0.00,WeatherDisplay:10.37,2013-02-08 12:20:00,
2013-02-08 04:25:00,39.2,35.7,30.17,West,270,2.2,4.6,87,0.00,CLR,BKN,0.00,WeatherDisplay:10.37,2013-02-08 12:25:00,
2013-02-08 04:27:00,39.2,35.4,30.17,NW,315,0.7,3.4,86,0.00,CLR,BKN,0.00,WeatherDisplay:10.37,2013-02-08 12:27:00,
2013-02-08 04:30:00,39.4,35.8,30.16,NW,315,0.7,2.3,87,0.00,CLR,BKN,0.00,WeatherDisplay:10.37,2013-02-08 12:30:00,
2013-02-08 04:35:00,39.4,35.5,30.17,SW,225,1.6,3.4,86,0.00,CLR,BKN,0.00,WeatherDisplay:10.37,2013-02-08 12:35:00,
2013-02-08 05:00:00,39.2,35.1,30.17,West,270,2.2,3.8,85,0.00,CLR,BKN,0.00,WeatherDisplay:10.37,2013-02-08 13:00:00,
2013-02-08 05:05:00,39.2,35.1,30.17,West,270,2.2,3.8,85,0.00,CLR,BKN,0.00,WeatherDisplay:10.37,2013-02-08 13:05:00,
2013-02-08 05:10:00,39.2,35.1,30.17,West,270,0.0,3.4,85,0.00,CLR,BKN,0.00,WeatherDisplay:10.37,2013-02-08 13:10:00,
2013-02-08 05:15:00,39.4,35.2,30.17,NW,315,0.7,1.1,85,0.00,CLR,BKN,0.00,WeatherDisplay:10.37,2013-02-08 13:15:00,
2013-02-08 05:20:00,39.4,35.2,30.17,North,0,0.0,1.1,85,0.00,CLR,BKN,0.00,WeatherDisplay:10.37,2013-02-08 13:20:00,
2013-02-08 05:25:00,39.4,35.2,30.18,West,270,0.0,2.3,85,0.00,CLR,BKN,0.00,WeatherDisplay:10.37,2013-02-08 13:25:00,
2013-02-08 05:27:00,39.7,35.3,30.17,West,270,1.6,4.6,84,0.00,CLR,BKN,0.00,WeatherDisplay:10.37,2013-02-08 13:27:00,
2013-02-08 05:30:00,39.6,35.4,30.17,NW,315,2.2,4.6,85,0.00,CLR,BKN,0.00,WeatherDisplay:10.37,2013-02-08 13:30:00,
2013-02-08 05:35:00,39.7,35.3,30.18,SW,225,0.7,3.4,84,0.00,CLR,BKN,0.00,WeatherDisplay:10.37,2013-02-08 13:35:00,
2013-02-08 06:00:00,39.7,35.0,30.17,West,270,0.0,1.6,83,0.00,CLR,BKN,0.00,WeatherDisplay:10.37,2013-02-08 14:00:00,
2013-02-08 06:05:00,39.7,35.0,30.18,West,270,0.0,1.6,83,0.00,CLR,BKN,0.00,WeatherDisplay:10.37,2013-02-08 14:05:00,
2013-02-08 06:10:00,39.7,35.0,30.18,NW,315,0.7,2.3,83,0.00,CLR,BKN,0.00,WeatherDisplay:10.37,2013-02-08 14:10:00,
2013-02-08 06:15:00,39.7,35.0,30.18,NW,315,0.0,1.1,83,0.00,CLR,BKN,0.00,WeatherDisplay:10.37,2013-02-08 14:15:00,
2013-02-08 06:20:00,39.6,34.8,30.18,West,270,0.7,1.1,83,0.00,CLR,BKN,0.00,WeatherDisplay:10.37,2013-02-08 14:20:00,
2013-02-08 06:25:00,39.6,34.8,30.18,West,270,0.7,2.3,83,0.00,CLR,BKN,0.00,WeatherDisplay:10.37,2013-02-08 14:25:00,
2013-02-08 06:27:00,39.6,34.8,30.18,SW,225,0.7,2.3,83,0.00,CLR,BKN,0.00,WeatherDisplay:10.37,2013-02-08 14:27:00,
2013-02-08 06:30:00,39.6,34.8,30.18,West,270,0.0,3.4,83,0.00,CLR,BKN,0.00,WeatherDisplay:10.37,2013-02-08 14:30:00,
2013-02-08 06:35:00,39.6,34.8,30.18,West,270,0.7,3.4,83,0.00,CLR,BKN,0.00,WeatherDisplay:10.37,2013-02-08 14:35:00,
2013-02-08 07:00:00,39.4,34.6,30.18,SW,225,0.7,3.4,83,0.00,CLR,BKN,0.00,WeatherDisplay:10.37,2013-02-08 15:00:00,
2013-02-08 07:05:00,39.6,34.8,30.18,SW,225,1.6,3.4,83,0.00,CLR,BKN,0.00,WeatherDisplay:10.37,2013-02-08 15:05:00,
2013-02-08 07:10:00,39.6,34.8,30.19,SW,225,0.7,1.6,83,0.00,CLR,BKN,0.00,WeatherDisplay:10.37,2013-02-08 15:10:00,
2013-02-08 07:15:00,39.6,34.8,30.19,West,270,0.7,2.3,83,0.00,CLR,BKN,0.00,WeatherDisplay:10.37,2013-02-08 15:15:00,
2013-02-08 07:20:00,39.6,34.8,30.19,West,270,0.7,1.1,83,0.00,CLR,BKN,0.00,WeatherDisplay:10.37,2013-02-08 15:20:00,
2013-02-08 07:25:00,39.7,35.0,30.19,NW,315,0.7,3.4,83,0.00,CLR,BKN,0.00,WeatherDisplay:10.37,2013-02-08 15:25:00,
2013-02-08 07:27:00,39.7,35.0,30.19,NW,315,0.7,2.3,83,0.00,CLR,BKN,0.00,WeatherDisplay:10.37,2013-02-08 15:27:00,
2013-02-08 07:30:00,39.7,35.0,30.19,NNE,22,0.7,2.3,83,0.00,CLR,BKN,0.00,WeatherDisplay:10.37,2013-02-08 15:30:00,
2013-02-08 07:35:00,39.7,35.0,30.19,West,270,0.7,2.3,83,0.00,CLR,BKN,0.00,WeatherDisplay:10.37,2013-02-08 15:35:00,
2013-02-08 08:00:00,39.7,35.0,30.20,NW,315,2.2,5.8,83,0.00,CLR,BKN,0.00,WeatherDisplay:10.37,2013-02-08 16:00:00,
2013-02-08 08:05:00,39.9,35.2,30.20,West,270,0.7,3.4,83,0.00,CLR,BKN,0.00,WeatherDisplay:10.37,2013-02-08 16:05:00,
2013-02-08 08:10:00,39.9,35.2,30.20,West,270,0.7,2.3,83,0.00,CLR,BKN,0.00,WeatherDisplay:10.37,2013-02-08 16:10:00,
2013-02-08 08:15:00,39.9,34.9,30.20,West,270,0.7,3.4,82,0.00,CLR,BKN,0.00,WeatherDisplay:10.37,2013-02-08 16:15:00,
2013-02-08 08:20:00,39.9,34.9,30.20,West,270,0.7,2.3,82,0.00,CLR,BKN,0.00,WeatherDisplay:10.37,2013-02-08 16:20:00,
2013-02-08 08:25:00,40.1,35.0,30.20,West,270,0.0,3.4,82,0.00,CLR,BKN,0.00,WeatherDisplay:10.37,2013-02-08 16:25:00,
2013-02-08 08:27:00,40.1,35.0,30.20,West,270,1.6,3.4,82,0.00,CLR,BKN,0.00,WeatherDisplay:10.37,2013-02-08 16:27:00,
2013-02-08 08:30:00,40.1,35.0,30.20,SW,225,0.7,2.3,82,0.00,CLR,BKN,0.00,WeatherDisplay:10.37,2013-02-08 16:30:00,
2013-02-08 08:35:00,40.1,35.0,30.20,West,270,0.7,3.4,82,0.00,CLR,BKN,0.00,WeatherDisplay:10.37,2013-02-08 16:35:00,
2013-02-08 09:00:00,40.5,35.1,30.21,SW,225,1.6,4.6,81,0.00,CLR,BKN,0.00,WeatherDisplay:10.37,2013-02-08 17:00:00,
2013-02-08 09:05:00,40.6,35.3,30.21,SW,225,1.6,3.4,81,0.00,CLR,BKN,0.00,WeatherDisplay:10.37,2013-02-08 17:05:00,
2013-02-08 09:10:00,40.8,35.4,30.20,NW,315,0.7,2.3,81,0.00,CLR,BKN,0.00,WeatherDisplay:10.37,2013-02-08 17:10:00,
2013-02-08 09:15:00,41.0,35.6,30.21,NW,315,0.7,3.4,81,0.00,CLR,BKN,0.00,WeatherDisplay:10.37,2013-02-08 17:15:00,
2013-02-08 09:20:00,41.2,35.8,30.21,West,270,2.2,3.8,81,0.00,CLR,BKN,0.00,WeatherDisplay:10.37,2013-02-08 17:20:00,
2013-02-08 09:25:00,41.4,35.7,30.21,NW,315,1.6,3.4,80,0.00,CLR,BKN,0.00,WeatherDisplay:10.37,2013-02-08 17:25:00,
2013-02-08 09:27:00,41.7,36.0,30.21,West,270,0.7,3.4,80,0.00,CLR,BKN,0.00,WeatherDisplay:10.37,2013-02-08 17:27:00,
2013-02-08 09:30:00,41.5,35.8,30.21,NW,315,0.7,3.4,80,0.00,CLR,BKN,0.00,WeatherDisplay:10.37,2013-02-08 17:30:00,
2013-02-08 09:35:00,41.7,36.0,30.21,NW,315,0.7,4.6,80,0.00,CLR,BKN,0.00,WeatherDisplay:10.37,2013-02-08 17:35:00,
2013-02-08 10:00:00,42.4,36.4,30.21,West,270,2.2,3.4,79,0.00,CLR,BKN,0.00,WeatherDisplay:10.37,2013-02-08 18:00:00,
2013-02-08 10:05:00,42.6,36.2,30.21,West,270,0.7,3.4,78,0.00,CLR,BKN,0.00,WeatherDisplay:10.37,2013-02-08 18:05:00,
2013-02-08 10:10:00,42.8,36.4,30.21,SW,225,0.7,3.8,78,0.00,CLR,BKN,0.00,WeatherDisplay:10.37,2013-02-08 18:10:00,
2013-02-08 10:15:00,43.2,36.4,30.21,South,180,1.6,3.4,77,0.00,CLR,BKN,0.00,WeatherDisplay:10.37,2013-02-08 18:15:00,
2013-02-08 10:20:00,43.3,36.3,30.21,North,0,1.6,3.4,76,0.00,CLR,BKN,0.00,WeatherDisplay:10.37,2013-02-08 18:20:00,
2013-02-08 10:25:00,43.7,36.6,30.21,East,90,0.0,2.3,76,0.00,CLR,BKN,0.00,WeatherDisplay:10.37,2013-02-08 18:25:00,
2013-02-08 10:27:00,43.9,36.5,30.22,West,270,1.6,3.4,75,0.00,CLR,BKN,0.00,WeatherDisplay:10.37,2013-02-08 18:27:00,
2013-02-08 10:30:00,43.7,36.3,30.22,NE,45,0.0,2.3,75,0.00,CLR,BKN,0.00,WeatherDisplay:10.37,2013-02-08 18:30:00,
2013-02-08 10:35:00,43.9,36.8,30.22,West,270,1.6,3.4,76,0.00,CLR,BKN,0.00,WeatherDisplay:10.37,2013-02-08 18:35:00,
2013-02-08 11:00:00,43.7,36.6,30.22,East,90,1.6,3.8,76,0.00,CLR,BKN,0.00,WeatherDisplay:10.37,2013-02-08 19:00:00,
2013-02-08 11:05:00,43.3,37.3,30.22,North,0,0.7,3.4,79,0.00,CLR,BKN,0.00,WeatherDisplay:10.37,2013-02-08 19:05:00,
2013-02-08 11:10:00,43.0,37.5,30.22,East,90,0.7,3.4,81,0.00,CLR,BKN,0.00,WeatherDisplay:10.37,2013-02-08 19:10:00,
2013-02-08 11:15:00,42.6,37.5,30.22,East,90,1.6,3.4,82,0.00,CLR,BKN,0.00,WeatherDisplay:10.37,2013-02-08 19:15:00,
2013-02-08 11:20:00,42.6,37.8,30.22,South,180,0.0,2.3,83,0.00,CLR,BKN,0.00,WeatherDisplay:10.37,2013-02-08 19:20:00,
2013-02-08 11:25:00,42.8,38.0,30.22,SE,135,0.7,2.3,83,0.00,CLR,BKN,0.00,WeatherDisplay:10.37,2013-02-08 19:25:00,
2013-02-08 11:27:00,42.8,38.0,30.22,East,90,1.6,4.6,83,0.00,CLR,BKN,0.00,WeatherDisplay:10.37,2013-02-08 19:27:00,
2013-02-08 11:30:00,42.8,38.0,30.22,East,90,0.7,3.4,83,0.00,CLR,BKN,0.00,WeatherDisplay:10.37,2013-02-08 19:30:00,
2013-02-08 11:35:00,42.8,38.0,30.22,SE,135,2.2,4.6,83,0.00,CLR,BKN,0.00,WeatherDisplay:10.37,2013-02-08 19:35:00,
2013-02-08 12:00:00,42.1,37.3,30.21,NE,45,0.0,3.4,83,0.00,CLR,BKN,0.00,WeatherDisplay:10.37,2013-02-08 20:00:00,
2013-02-08 12:05:00,42.1,37.6,30.21,East,90,2.2,4.6,84,0.00,CLR,BKN,0.00,WeatherDisplay:10.37,2013-02-08 20:05:00,
2013-02-08 12:10:00,42.3,37.8,30.21,East,90,0.7,2.3,84,0.00,CLR,BKN,0.00,WeatherDisplay:10.37,2013-02-08 20:10:00,
2013-02-08 12:15:00,42.1,37.6,30.21,SE,135,1.6,3.4,84,0.00,CLR,BKN,0.00,WeatherDisplay:10.37,2013-02-08 20:15:00,
2013-02-08 12:20:00,42.3,37.8,30.21,SE,135,1.6,3.8,84,0.00,CLR,BKN,0.00,WeatherDisplay:10.37,2013-02-08 20:20:00,
2013-02-08 12:25:00,42.4,37.9,30.21,SE,135,1.6,3.4,84,0.00,CLR,BKN,0.00,WeatherDisplay:10.37,2013-02-08 20:25:00,
2013-02-08 12:27:00,43.0,38.2,30.21,SE,135,0.7,2.3,83,0.00,CLR,BKN,0.00,WeatherDisplay:10.37,2013-02-08 20:27:00,
2013-02-08 12:30:00,42.8,38.0,30.21,East,90,0.7,3.4,83,0.00,CLR,BKN,0.00,WeatherDisplay:10.37,2013-02-08 20:30:00,
2013-02-08 12:35:00,43.0,38.2,30.21,East,90,0.7,3.4,83,0.00,CLR,BKN,0.00,WeatherDisplay:10.37,2013-02-08 20:35:00,
2013-02-08 13:00:00,43.5,38.1,30.21,SE,135,0.0,1.6,81,0.00,CLR,BKN,0.00,WeatherDisplay:10.37,2013-02-08 21:00:00,
2013-02-08 13:05:00,43.5,38.1,30.21,NE,45,0.0,2.3,81,0.00,CLR,BKN,0.00,WeatherDisplay:10.37,2013-02-08 21:05:00,
2013-02-08 13:10:00,43.7,38.3,30.21,SE,135,0.0,2.3,81,0.00,CLR,BKN,0.00,WeatherDisplay:10.37,2013-02-08 21:10:00,
2013-02-08 13:15:00,43.3,37.9,30.21,SE,135,1.6,5.8,81,0.00,CLR,BKN,0.00,WeatherDisplay:10.37,2013-02-08 21:15:00,
2013-02-08 13:20:00,43.3,38.2,30.21,North,0,0.7,3.4,82,0.00,CLR,BKN,0.00,WeatherDisplay:10.37,2013-02-08 21:20:00,
2013-02-08 13:25:00,43.3,37.9,30.21,SE,135,0.0,2.3,81,0.00,CLR,BKN,0.00,WeatherDisplay:10.37,2013-02-08 21:25:00,
2013-02-08 13:27:00,43.7,38.3,30.21,North,0,0.0,3.4,81,0.00,CLR,BKN,0.00,WeatherDisplay:10.37,2013-02-08 21:27:00,
2013-02-08 13:30:00,43.5,38.1,30.21,SE,135,0.0,2.3,81,0.00,CLR,BKN,0.00,WeatherDisplay:10.37,2013-02-08 21:30:00,
2013-02-08 13:35:00,43.7,38.3,30.21,North,0,0.0,3.4,81,0.00,CLR,BKN,0.00,WeatherDisplay:10.37,2013-02-08 21:35:00,
2013-02-08 14:00:00,43.3,37.6,30.21,NE,45,0.0,2.3,80,0.00,CLR,BKN,0.00,WeatherDisplay:10.37,2013-02-08 22:00:00,
2013-02-08 14:05:00,43.7,37.9,30.20,North,0,0.0,1.1,80,0.00,CLR,BKN,0.00,WeatherDisplay:10.37,2013-02-08 22:05:00,
2013-02-08 14:10:00,43.9,38.1,30.21,East,90,0.7,3.4,80,0.00,CLR,BKN,0.00,WeatherDisplay:10.37,2013-02-08 22:10:00,
2013-02-08 14:15:00,43.9,37.8,30.20,SE,135,1.6,3.4,79,0.00,CLR,BKN,0.00,WeatherDisplay:10.37,2013-02-08 22:15:00,
2013-02-08 14:20:00,43.9,37.5,30.20,West,270,1.6,3.4,78,0.00,CLR,BKN,0.00,WeatherDisplay:10.37,2013-02-08 22:20:00,
2013-02-08 14:25:00,44.1,36.6,30.20,NW,315,0.7,3.4,75,0.00,CLR,BKN,0.00,WeatherDisplay:10.37,2013-02-08 22:25:00,
2013-02-08 14:27:00,44.6,36.8,30.19,NW,315,0.0,3.4,74,0.00,CLR,BKN,0.00,WeatherDisplay:10.37,2013-02-08 22:27:00,
2013-02-08 14:30:00,44.4,36.3,30.20,NW,315,2.2,4.6,73,0.00,CLR,BKN,0.00,WeatherDisplay:10.37,2013-02-08 22:30:00,
2013-02-08 14:35:00,44.6,36.8,30.19,SW,225,0.0,3.4,74,0.00,CLR,BKN,0.00,WeatherDisplay:10.37,2013-02-08 22:35:00,
2013-02-08 15:00:00,44.6,36.8,30.19,North,0,0.7,3.4,74,0.00,CLR,BKN,0.00,WeatherDisplay:10.37,2013-02-08 23:00:00,
2013-02-08 15:05:00,44.6,36.8,30.19,NW,315,0.7,2.3,74,0.00,CLR,BKN,0.00,WeatherDisplay:10.37,2013-02-08 23:05:00,
2013-02-08 15:10:00,44.2,36.1,30.19,NW,315,0.0,2.3,73,0.00,CLR,BKN,0.00,WeatherDisplay:10.37,2013-02-08 23:10:00,
2013-02-08 15:15:00,44.2,36.5,30.19,NW,315,0.0,1.6,74,0.00,CLR,BKN,0.00,WeatherDisplay:10.37,2013-02-08 23:15:00,
2013-02-08 15:20:00,44.2,36.1,30.19,North,0,3.1,4.6,73,0.00,CLR,BKN,0.00,WeatherDisplay:10.37,2013-02-08 23:20:00,
2013-02-08 15:25:00,44.2,36.1,30.19,North,0,3.1,4.6,73,0.00,CLR,BKN,0.00,WeatherDisplay:10.37,2013-02-08 23:25:00,
2013-02-08 15:27:00,44.1,37.0,30.20,SE,135,0.7,2.3,76,0.00,CLR,BKN,0.00,WeatherDisplay:10.37,2013-02-08 23:27:00,
2013-02-08 15:30:00,44.1,36.3,30.19,NE,45,0.0,2.3,74,0.00,CLR,BKN,0.00,WeatherDisplay:10.37,2013-02-08 23:30:00,
2013-02-08 15:35:00,44.1,37.0,30.19,East,90,0.7,2.3,76,0.00,CLR,BKN,0.00,WeatherDisplay:10.37,2013-02-08 23:35:00,
2013-02-08 16:00:00,43.0,36.9,30.20,SE,135,0.0,2.3,79,0.00,CLR,BKN,0.00,WeatherDisplay:10.37,2013-02-09 00:00:00,
2013-02-08 16:05:00,43.0,36.9,30.20,SE,135,0.0,2.3,79,0.00,CLR,BKN,0.00,WeatherDisplay:10.37,2013-02-09 00:05:00,
2013-02-08 16:10:00,42.8,36.7,30.20,North,0,0.7,2.3,79,0.00,CLR,BKN,0.00,WeatherDisplay:10.37,2013-02-09 00:10:00,
2013-02-08 16:15:00,42.6,36.6,30.20,North,0,0.7,1.6,79,0.00,CLR,BKN,0.00,WeatherDisplay:10.37,2013-02-09 00:15:00,
2013-02-08 16:20:00,42.4,36.7,30.20,North,0,0.0,1.1,80,0.00,CLR,BKN,0.00,WeatherDisplay:10.37,2013-02-09 00:20:00,
2013-02-08 16:25:00,42.3,36.5,30.20,NE,45,0.0,1.1,80,0.00,CLR,BKN,0.00,WeatherDisplay:10.37,2013-02-09 00:25:00,
2013-02-08 16:27:00,42.3,36.5,30.20,East,90,0.0,1.1,80,0.00,CLR,BKN,0.00,WeatherDisplay:10.37,2013-02-09 00:27:00,
2013-02-08 16:30:00,42.3,36.5,30.20,NW,315,0.0,1.1,80,0.00,CLR,BKN,0.00,WeatherDisplay:10.37,2013-02-09 00:30:00,
2013-02-08 16:35:00,42.3,36.5,30.20,East,90,0.0,1.6,80,0.00,CLR,BKN,0.00,WeatherDisplay:10.37,2013-02-09 00:35:00,
2013-02-08 17:00:00,41.9,36.5,30.19,SE,135,1.6,2.3,81,0.00,CLR,BKN,0.00,WeatherDisplay:10.37,2013-02-09 01:00:00,
2013-02-08 17:05:00,41.9,36.5,30.19,SE,135,1.6,2.3,81,0.00,CLR,BKN,0.00,WeatherDisplay:10.37,2013-02-09 01:05:00,
2013-02-08 17:10:00,41.5,36.5,30.19,East,90,0.0,1.1,82,0.00,CLR,BKN,0.00,WeatherDisplay:10.37,2013-02-09 01:10:00,
2013-02-08 17:15:00,41.4,36.3,30.19,East,90,0.0,1.1,82,0.00,CLR,BKN,0.00,WeatherDisplay:10.37,2013-02-09 01:15:00,
2013-02-08 17:20:00,41.2,36.1,30.19,East,90,0.0,1.1,82,0.00,CLR,BKN,0.00,WeatherDisplay:10.37,2013-02-09 01:20:00,
2013-02-08 17:25:00,41.0,36.2,30.19,SE,135,0.0,1.1,83,0.00,CLR,BKN,0.00,WeatherDisplay:10.37,2013-02-09 01:25:00,
2013-02-08 17:27:00,40.5,36.0,30.19,SE,135,0.0,1.1,84,0.00,CLR,BKN,0.00,WeatherDisplay:10.37,2013-02-09 01:27:00,
2013-02-08 17:30:00,40.6,35.9,30.19,SE,135,0.0,1.1,83,0.00,CLR,BKN,0.00,WeatherDisplay:10.37,2013-02-09 01:30:00,
2013-02-08 17:35:00,40.5,36.0,30.19,SE,135,0.0,1.1,84,0.00,CLR,BKN,0.00,WeatherDisplay:10.37,2013-02-09 01:35:00,
2013-02-08 18:00:00,39.6,35.4,30.19,East,90,0.0,1.1,85,0.00,CLR,BKN,0.00,WeatherDisplay:10.37,2013-02-09 02:00:00,
2013-02-08 18:05:00,39.6,35.4,30.19,East,90,0.0,1.1,85,0.00,CLR,BKN,0.00,WeatherDisplay:10.37,2013-02-09 02:05:00,
2013-02-08 18:10:00,39.0,35.2,30.19,East,90,0.0,1.1,86,0.00,CLR,BKN,0.00,WeatherDisplay:10.37,2013-02-09 02:10:00,
2013-02-08 18:15:00,38.8,35.0,30.19,East,90,0.0,0.0,86,0.00,CLR,BKN,0.00,WeatherDisplay:10.37,2013-02-09 02:15:00,
2013-02-08 18:20:00,38.5,34.9,30.19,East,90,0.0,0.0,87,0.00,CLR,BKN,0.00,WeatherDisplay:10.37,2013-02-09 02:20:00,
2013-02-08 18:25:00,38.3,34.8,30.19,East,90,0.0,0.0,87,0.00,CLR,BKN,0.00,WeatherDisplay:10.37,2013-02-09 02:25:00,
2013-02-08 18:27:00,37.6,34.1,30.18,East,90,0.0,0.0,87,0.00,CLR,BKN,0.00,WeatherDisplay:10.37,2013-02-09 02:27:00,
2013-02-08 18:30:00,38.1,34.6,30.19,East,90,0.0,0.0,87,0.00,CLR,BKN,0.00,WeatherDisplay:10.37,2013-02-09 02:30:00,
2013-02-08 18:35:00,37.8,34.2,30.19,East,90,0.0,1.1,87,0.00,CLR,BKN,0.00,WeatherDisplay:10.37,2013-02-09 02:35:00,
2013-02-08 19:00:00,36.9,33.9,30.19,West,270,0.7,1.6,89,0.00,CLR,BKN,0.00,WeatherDisplay:10.37,2013-02-09 03:00:00,
2013-02-08 19:05:00,36.9,33.9,30.19,West,270,0.0,1.1,89,0.00,CLR,BKN,0.00,WeatherDisplay:10.37,2013-02-09 03:05:00,
2013-02-08 19:10:00,36.9,33.9,30.19,SW,225,0.0,1.1,89,0.00,CLR,BKN,0.00,WeatherDisplay:10.37,2013-02-09 03:10:00,
2013-02-08 19:15:00,36.9,33.9,30.19,NW,315,0.0,1.1,89,0.00,CLR,BKN,0.00,WeatherDisplay:10.37,2013-02-09 03:15:00,
2013-02-08 19:20:00,36.5,33.6,30.19,NW,315,0.0,0.0,89,0.00,CLR,BKN,0.00,WeatherDisplay:10.37,2013-02-09 03:20:00,
2013-02-08 19:25:00,36.3,33.4,30.20,NW,315,0.0,0.0,89,0.00,CLR,BKN,0.00,WeatherDisplay:10.37,2013-02-09 03:25:00,
2013-02-08 19:27:00,36.0,33.3,30.19,NW,315,0.0,0.0,90,0.00,CLR,BKN,0.00,WeatherDisplay:10.37,2013-02-09 03:27:00,
2013-02-08 19:30:00,36.0,33.0,30.19,NW,315,0.0,1.1,89,0.00,CLR,BKN,0.00,WeatherDisplay:10.37,2013-02-09 03:30:00,
2013-02-08 19:35:00,36.0,33.3,30.19,NW,315,0.0,1.1,90,0.00,CLR,BKN,0.00,WeatherDisplay:10.37,2013-02-09 03:35:00,
2013-02-08 20:00:00,35.6,33.2,30.19,SE,135,0.0,0.0,91,0.00,CLR,BKN,0.00,WeatherDisplay:10.37,2013-02-09 04:00:00,
2013-02-08 20:05:00,35.6,33.2,30.19,SE,135,0.0,0.0,91,0.00,CLR,BKN,0.00,WeatherDisplay:10.37,2013-02-09 04:05:00,
2013-02-08 20:10:00,35.6,33.2,30.18,SE,135,0.0,0.0,91,0.00,CLR,BKN,0.00,WeatherDisplay:10.37,2013-02-09 04:10:00,
2013-02-08 20:15:00,35.6,33.2,30.19,SE,135,0.0,1.1,91,0.00,CLR,BKN,0.00,WeatherDisplay:10.37,2013-02-09 04:15:00,
2013-02-08 20:20:00,35.6,33.2,30.19,SW,225,0.0,1.1,91,0.00,CLR,BKN,0.00,WeatherDisplay:10.37,2013-02-09 04:20:00,
2013-02-08 20:25:00,35.6,33.2,30.18,SE,135,0.0,1.1,91,0.00,CLR,BKN,0.00,WeatherDisplay:10.37,2013-02-09 04:25:00,
2013-02-08 20:27:00,35.4,33.3,30.19,South,180,0.0,1.1,92,0.00,CLR,BKN,0.00,WeatherDisplay:10.37,2013-02-09 04:27:00,
2013-02-08 20:30:00,35.6,33.2,30.19,West,270,0.0,1.1,91,0.00,CLR,BKN,0.00,WeatherDisplay:10.37,2013-02-09 04:30:00,
2013-02-08 20:35:00,35.6,33.5,30.19,NW,315,0.0,1.1,92,0.00,CLR,BKN,0.00,WeatherDisplay:10.37,2013-02-09 04:35:00,
2013-02-08 21:00:00,34.5,32.2,30.19,West,270,0.0,1.1,91,0.00,CLR,BKN,0.00,WeatherDisplay:10.37,2013-02-09 05:00:00,
2013-02-08 21:05:00,34.5,32.2,30.19,West,270,0.0,1.1,91,0.00,CLR,BKN,0.00,WeatherDisplay:10.37,2013-02-09 05:05:00,
2013-02-08 21:10:00,34.2,32.1,30.20,West,270,0.0,1.1,92,0.00,CLR,BKN,0.00,WeatherDisplay:10.37,2013-02-09 05:10:00,
2013-02-08 21:15:00,34.0,31.9,30.20,West,270,0.0,1.1,92,0.00,CLR,BKN,0.00,WeatherDisplay:10.37,2013-02-09 05:15:00,
2013-02-08 21:20:00,34.2,32.1,30.19,NW,315,0.0,1.1,92,0.00,CLR,BKN,0.00,WeatherDisplay:10.37,2013-02-09 05:20:00,
2013-02-08 21:25:00,34.2,32.1,30.20,NW,315,0.0,0.0,92,0.00,CLR,BKN,0.00,WeatherDisplay:10.37,2013-02-09 05:25:00,
2013-02-08 21:27:00,34.2,32.1,30.20,NW,315,0.0,1.1,92,0.00,CLR,BKN,0.00,WeatherDisplay:10.37,2013-02-09 05:27:00,
2013-02-08 21:30:00,34.2,32.1,30.20,NW,315,0.0,0.0,92,0.00,CLR,BKN,0.00,WeatherDisplay:10.37,2013-02-09 05:30:00,
2013-02-08 21:35:00,34.2,32.1,30.19,NW,315,0.0,0.0,92,0.00,CLR,BKN,0.00,WeatherDisplay:10.37,2013-02-09 05:35:00,
2013-02-08 22:00:00,34.7,32.9,30.18,SE,135,0.0,1.1,93,0.00,CLR,BKN,0.00,WeatherDisplay:10.37,2013-02-09 06:00:00,
2013-02-08 22:05:00,34.7,32.9,30.19,SE,135,0.0,1.1,93,0.00,CLR,BKN,0.00,WeatherDisplay:10.37,2013-02-09 06:05:00,
2013-02-08 22:10:00,34.7,32.9,30.18,West,270,0.0,1.1,93,0.00,CLR,BKN,0.00,WeatherDisplay:10.37,2013-02-09 06:10:00,
2013-02-08 22:15:00,34.7,32.9,30.18,West,270,0.0,0.0,93,0.00,CLR,BKN,0.00,WeatherDisplay:10.37,2013-02-09 06:15:00,
2013-02-08 22:20:00,34.5,32.7,30.18,West,270,0.0,1.1,93,0.00,CLR,BKN,0.00,WeatherDisplay:10.37,2013-02-09 06:20:00,
2013-02-08 22:25:00,34.5,32.7,30.19,West,270,0.0,1.6,93,0.00,CLR,BKN,0.00,WeatherDisplay:10.37,2013-02-09 06:25:00,
2013-02-08 22:27:00,34.2,32.3,30.19,NW,315,0.0,1.1,93,0.00,CLR,BKN,0.00,WeatherDisplay:10.37,2013-02-09 06:27:00,
2013-02-08 22:30:00,34.3,32.5,30.19,NW,315,0.0,1.6,93,0.00,CLR,BKN,0.00,WeatherDisplay:10.37,2013-02-09 06:30:00,
2013-02-08 22:35:00,34.2,32.3,30.19,NW,315,0.0,1.1,93,0.00,CLR,BKN,0.00,WeatherDisplay:10.37,2013-02-09 06:35:00,
2013-02-08 23:00:00,33.1,31.3,30.20,West,270,0.0,1.1,93,0.00,CLR,BKN,0.00,WeatherDisplay:10.37,2013-02-09 07:00:00,
2013-02-08 23:05:00,33.1,31.3,30.20,West,270,0.0,0.0,93,0.00,CLR,BKN,0.00,WeatherDisplay:10.37,2013-02-09 07:05:00,
2013-02-08 23:10:00,32.9,31.1,30.20,West,270,0.0,1.1,93,0.00,CLR,BKN,0.00,WeatherDisplay:10.37,2013-02-09 07:10:00,
2013-02-08 23:15:00,32.9,31.1,30.19,West,270,0.0,1.1,93,0.00,CLR,BKN,0.00,WeatherDisplay:10.37,2013-02-09 07:15:00,
2013-02-08 23:20:00,32.7,30.9,30.19,South,180,0.0,1.1,93,0.00,CLR,BKN,0.00,WeatherDisplay:10.37,2013-02-09 07:20:00,
2013-02-08 23:25:00,32.5,30.7,30.19,South,180,0.0,0.0,93,0.00,CLR,BKN,0.00,WeatherDisplay:10.37,2013-02-09 07:25:00,
2013-02-08 23:27:00,32.0,30.2,30.19,West,270,0.0,1.1,93,0.00,CLR,BKN,0.00,WeatherDisplay:10.37,2013-02-09 07:27:00,
2013-02-08 23:30:00,32.4,30.6,30.19,South,180,0.0,0.0,93,0.00,CLR,BKN,0.00,WeatherDisplay:10.37,2013-02-09 07:30:00,
2013-02-08 23:35:00,32.0,30.2,30.19,West,270,0.0,1.1,93,0.00,CLR,BKN,0.00,WeatherDisplay:10.37,2013-02-09 07:35:00,